Time;durP1;ratioP1;P1;durP2;ratioP2;P2;SDS_P1;SDS_P2;PMS_P1;PMS_P2;Temp;Humidity;BMP_temperature;BMP_pressure;BME280_temperature;BME280_humidity;BME280_pressure;Samples;Min_cycle;Max_cycle;Signal;HPM_P1;HPM_P2
2022/12/12 00:00:37;;;;;;;31.73;15.72;;;;;;;-3.04;100.00;96791.49;1746544;81;20918;-80
2022/12/12 00:03:05;;;;;;;26.93;13.32;;;;;;;-3.07;100.00;96785.84;1752349;81;21053;-77
2022/12/12 00:05:30;;;;;;;26.17;14.18;;;;;;;-3.07;100.00;96785.33;1752289;81;21032;-78
2022/12/12 00:07:56;;;;;;;27.35;13.35;;;;;;;-3.08;100.00;96791.63;1752452;81;20965;-81
2022/12/12 00:10:22;;;;;;;28.00;13.43;;;;;;;-3.06;100.00;96789.59;1752517;81;21000;-78
2022/12/12 00:12:48;;;;;;;29.07;12.95;;;;;;;-3.07;100.00;96783.19;1752449;81;20858;-78
2022/12/12 00:15:14;;;;;;;28.92;12.20;;;;;;;-3.05;100.00;96791.20;1752381;81;21233;-81
2022/12/12 00:17:41;;;;;;;33.40;17.02;;;;;;;-3.07;100.00;96784.00;1752436;81;21592;-81
2022/12/12 00:20:07;;;;;;;24.90;12.40;;;;;;;-3.05;100.00;96781.92;1752455;81;21013;-78
2022/12/12 00:22:33;;;;;;;22.05;10.88;;;;;;;-3.08;100.00;96783.67;1752339;81;21057;-78
2022/12/12 00:24:59;;;;;;;24.70;13.25;;;;;;;-3.10;100.00;96783.61;1752495;81;20843;-79
2022/12/12 00:27:25;;;;;;;24.90;12.25;;;;;;;-3.15;100.00;96788.27;1752217;81;21132;-80
2022/12/12 00:29:54;;;;;;;28.10;13.78;;;;;;;-3.19;100.00;96784.44;1752266;81;20926;-81
2022/12/12 00:32:20;;;;;;;24.18;10.58;;;;;;;-3.18;100.00;96775.45;1752288;81;21065;-81
2022/12/12 00:34:46;;;;;;;21.35;10.95;;;;;;;-3.18;100.00;96784.73;1752347;81;20874;-81
2022/12/12 00:37:12;;;;;;;27.85;13.03;;;;;;;-3.19;100.00;96780.46;1752106;81;21707;-78
2022/12/12 00:39:37;;;;;;;24.43;12.50;;;;;;;-3.19;100.00;96781.78;1752158;81;21083;-81
2022/12/12 00:42:03;;;;;;;24.60;11.05;;;;;;;-3.19;100.00;96778.62;1752098;81;21012;-78
2022/12/12 00:44:29;;;;;;;24.95;12.07;;;;;;;-3.16;100.00;96778.19;1751973;81;20890;-81
2022/12/12 00:46:55;;;;;;;29.75;13.80;;;;;;;-3.21;100.00;96773.26;1752227;81;20831;-78
2022/12/12 00:49:21;;;;;;;23.10;12.58;;;;;;;-3.22;100.00;96775.61;1752142;81;21655;-80
2022/12/12 00:51:47;;;;;;;24.43;11.33;;;;;;;-3.21;100.00;96779.36;1750761;81;21150;-81
2022/12/12 00:54:13;;;;;;;23.70;12.47;;;;;;;-3.20;100.00;96772.22;1771135;81;21551;-78
2022/12/12 00:56:39;;;;;;;29.15;13.98;;;;;;;-3.20;100.00;96770.37;1750721;82;20861;-81
2022/12/12 00:59:05;;;;;;;24.67;11.70;;;;;;;-3.16;100.00;96768.92;1771001;81;20988;-81
2022/12/12 01:01:32;;;;;;;22.73;11.80;;;;;;;-3.17;100.00;96769.92;1751395;81;20866;-78
2022/12/12 01:03:58;;;;;;;29.55;13.62;;;;;;;-3.19;100.00;96769.34;1752142;81;21022;-81
2022/12/12 01:06:24;;;;;;;24.18;12.25;;;;;;;-3.19;100.00;96774.64;1752255;81;21002;-81
2022/12/12 01:08:50;;;;;;;30.52;13.40;;;;;;;-3.17;100.00;96778.39;1752206;81;20862;-81
2022/12/12 01:11:17;;;;;;;31.35;14.43;;;;;;;-3.14;100.00;96768.69;1752196;81;21021;-81
2022/12/12 01:13:44;;;;;;;28.62;12.25;;;;;;;-3.14;100.00;96773.47;1752149;81;21403;-78
2022/12/12 01:16:09;;;;;;;23.45;11.90;;;;;;;-3.18;100.00;96763.01;1752298;80;21108;-78
2022/12/12 01:18:36;;;;;;;29.48;13.05;;;;;;;-3.18;100.00;96763.01;1725033;81;20875;-81
2022/12/12 01:21:02;;;;;;;19.27;10.63;;;;;;;-3.17;100.00;96763.81;1752222;81;21018;-77
2022/12/12 01:23:28;;;;;;;26.27;13.70;;;;;;;-3.15;100.00;96761.77;1752276;81;20973;-81
2022/12/12 01:26:10;;;;;;;25.65;12.88;;;;;;;-3.20;100.00;96760.30;1752499;81;20957;-80
2022/12/12 01:28:35;;;;;;;24.77;11.20;;;;;;;-3.21;100.00;96767.44;1752219;81;21849;-78
2022/12/12 01:31:02;;;;;;;28.38;12.10;;;;;;;-3.21;100.00;96766.63;1752204;81;20875;-81
2022/12/12 01:33:27;;;;;;;24.80;12.30;;;;;;;-3.20;100.00;96769.05;1752041;81;21040;-80
2022/12/12 01:35:54;;;;;;;25.97;12.70;;;;;;;-3.19;100.00;96761.91;1752239;81;20875;-78
2022/12/12 01:38:20;;;;;;;27.10;13.35;;;;;;;-3.19;100.00;96757.42;1752407;81;20990;-80
2022/12/12 01:40:45;;;;;;;24.45;12.00;;;;;;;-3.21;100.00;96751.55;1752454;81;21271;-79
2022/12/12 01:43:13;;;;;;;21.77;10.75;;;;;;;-3.18;100.00;96752.41;1751860;81;21544;-80
2022/12/12 01:46:02;;;;;;;25.68;10.95;;;;;;;-3.20;100.00;96761.11;1772840;81;22114;-78
2022/12/12 01:48:33;;;;;;;28.50;12.95;;;;;;;-3.21;100.00;96762.14;1772512;81;21064;-81
2022/12/12 01:51:00;;;;;;;26.48;11.88;;;;;;;-3.23;100.00;96762.89;1753983;81;20988;-78
2022/12/12 01:53:28;;;;;;;21.17;9.08;;;;;;;-3.23;100.00;96758.91;1739126;82;21552;-78
2022/12/12 01:55:54;;;;;;;21.02;10.58;;;;;;;-3.25;100.00;96758.82;1730580;82;21067;-78
2022/12/12 01:58:20;;;;;;;29.23;12.75;;;;;;;-3.27;100.00;96760.38;1730462;82;20884;-81
2022/12/12 02:00:46;;;;;;;22.20;10.28;;;;;;;-3.24;100.00;96760.47;1730699;82;20967;-78
2022/12/12 02:03:12;;;;;;;24.32;11.90;;;;;;;-3.25;100.00;96750.87;1730582;82;20888;-78
2022/12/12 02:05:54;;;;;;;27.82;11.97;;;;;;;-3.29;100.00;96755.01;1730619;81;21138;-78
2022/12/12 02:08:20;;;;;;;19.05;11.05;;;;;;;-3.30;100.00;96756.85;1729643;82;21014;-78
2022/12/12 02:10:47;;;;;;;18.98;9.95;;;;;;;-3.27;100.00;96755.59;1701812;82;21044;-80
2022/12/12 02:13:17;;;;;;;18.07;8.58;;;;;;;-3.32;100.00;96755.47;1730323;82;21110;-78
2022/12/12 02:15:58;;;;;;;16.97;8.98;;;;;;;-3.31;100.00;96757.08;1730683;82;21034;-78
2022/12/12 02:18:58;;;;;;;20.52;9.53;;;;;;;-3.31;100.00;96760.53;1730457;82;21155;-81
2022/12/12 02:22:07;;;;;;;25.80;10.45;;;;;;;-3.32;100.00;96755.47;1730885;82;20979;-81
2022/12/12 02:24:57;;;;;;;28.77;13.18;;;;;;;-3.45;100.00;96732.06;1701487;82;21534;-81
2022/12/12 02:27:37;;;;;;;25.92;11.80;;;;;;;-3.31;100.00;96763.70;1696793;82;21086;-78
2022/12/12 02:30:23;;;;;;;18.98;9.30;;;;;;;-3.30;100.00;96763.48;1730940;82;21030;-78
2022/12/12 02:33:07;;;;;;;26.23;10.78;;;;;;;-3.29;100.00;96757.14;1702258;82;21120;-81
2022/12/12 02:36:05;;;;;;;22.20;10.88;;;;;;;-3.29;100.00;96751.03;1730821;82;21030;-81
2022/12/12 02:39:04;;;;;;;30.43;13.65;;;;;;;-3.30;100.00;96752.07;1730343;82;20979;-81
2022/12/12 02:41:52;;;;;;;24.15;12.93;;;;;;;-3.32;100.00;96756.79;1730497;82;21027;-78
2022/12/12 02:44:29;;;;;;;19.27;9.35;;;;;;;-3.33;100.00;96748.52;1729890;82;20999;-77
2022/12/12 02:47:22;;;;;;;20.23;9.88;;;;;;;-3.32;100.00;96747.52;1729915;82;21141;-81
2022/12/12 02:50:04;;;;;;;17.15;9.65;;;;;;;-3.38;100.00;96747.88;1696502;83;21587;-81
2022/12/12 02:52:30;;;;;;;21.65;9.78;;;;;;;-3.38;100.00;96754.50;1751382;81;21032;-77
2022/12/12 02:54:56;;;;;;;26.73;13.10;;;;;;;-3.34;100.00;96745.06;1746207;81;21291;-78
2022/12/12 02:57:23;;;;;;;23.05;10.88;;;;;;;-3.30;100.00;96745.45;1745826;82;20988;-81
2022/12/12 03:00:01;;;;;;;24.02;11.80;;;;;;;-3.29;100.00;96751.03;1768934;81;21135;-78
2022/12/12 03:09:06;;;;;;;23.77;11.03;;;;;;;-3.38;100.00;96749.20;1761271;81;21019;-80
2022/12/12 03:12:04;;;;;;;31.02;13.60;;;;;;;-3.41;100.00;96745.17;1761417;79;21019;-78
2022/12/12 03:14:54;;;;;;;22.70;11.12;;;;;;;-3.43;100.00;96747.20;1761577;81;21754;-78
2022/12/12 03:17:44;;;;;;;24.10;12.28;;;;;;;-3.40;100.00;96747.30;1761183;81;21353;-78
2022/12/12 03:20:27;;;;;;;23.90;11.80;;;;;;;-3.43;100.00;96743.75;1760054;81;21466;-78
2022/12/12 03:22:58;;;;;;;28.85;12.82;;;;;;;-3.39;100.00;96747.59;1761109;81;21008;-78
2022/12/12 03:25:42;;;;;;;21.20;9.55;;;;;;;-3.38;100.00;96746.55;1761545;81;21007;-78
2022/12/12 03:28:18;;;;;;;24.72;12.30;;;;;;;-3.35;100.00;96750.59;1761027;81;21825;-80
2022/12/12 03:30:46;;;;;;;23.18;11.83;;;;;;;-3.37;100.00;96747.36;1761213;81;21459;-78
2022/12/12 03:33:24;;;;;;;28.43;15.30;;;;;;;-3.37;100.00;96744.20;1761230;81;21015;-81
2022/12/12 03:36:17;;;;;;;28.55;13.15;;;;;;;-3.42;100.00;96747.53;1761715;81;21017;-78
2022/12/12 03:38:55;;;;;;;22.22;11.57;;;;;;;-3.39;100.00;96744.14;1761293;81;21063;-78
2022/12/12 03:41:19;;;;;;;24.47;13.05;;;;;;;-3.41;100.00;96750.98;1731661;81;21273;-81
2022/12/12 03:43:51;;;;;;;;;;;;;;;-3.40;100.00;96749.95;1763789;81;21492;-78
2022/12/12 03:46:22;;;;;;;29.15;13.38;;;;;;;-3.39;100.00;96745.45;1760190;81;20225;-81
2022/12/12 03:48:53;;;;;;;31.97;16.12;;;;;;;-3.41;100.00;96746.49;1761112;81;21554;-80
2022/12/12 03:51:30;;;;;;;47.70;18.60;;;;;;;-3.43;100.00;96746.40;1758644;81;21004;-81
2022/12/12 03:54:02;;;;;;;33.90;14.83;;;;;;;-3.41;100.00;96750.98;1757638;81;21175;-81
2022/12/12 03:57:10;;;;;;;31.90;15.23;;;;;;;-3.42;100.00;96740.91;1757206;81;21095;-81
2022/12/12 03:59:46;;;;;;;25.77;12.73;;;;;;;-3.40;100.00;96747.30;1655891;86;22150;-81
2022/12/12 04:02:32;;;;;;;24.77;10.60;;;;;;;-3.41;100.00;96739.87;1715799;82;21069;-78
2022/12/12 04:05:15;;;;;;;22.93;14.05;;;;;;;-3.44;100.00;96740.30;1765030;80;21073;-78
2022/12/12 04:07:48;;;;;;;22.05;9.83;;;;;;;-3.42;100.00;96735.61;1764796;81;21506;-78
2022/12/12 04:13:29;;;;;;;32.83;12.90;;;;;;;-3.39;100.00;96734.86;1706995;82;21028;-81
2022/12/12 04:16:09;;;;;;;24.63;11.70;;;;;;;-3.37;100.00;96738.09;1764802;81;21055;-81
2022/12/12 04:18:43;;;;;;;24.82;11.57;;;;;;;-3.38;100.00;96733.83;1733847;82;21064;-78
2022/12/12 04:24:34;;;;;;;89.95;33.40;;;;;;;-3.35;100.00;96728.88;1764574;81;20996;-81
2022/12/12 04:27:08;;;;;;;53.08;19.77;;;;;;;-3.31;100.00;96734.56;1764861;81;21020;-78
2022/12/12 04:29:54;;;;;;;46.48;19.73;;;;;;;-3.28;100.00;96729.61;1764677;81;21037;-81
2022/12/12 04:32:34;;;;;;;33.55;13.28;;;;;;;-3.27;100.00;96727.77;1764668;81;21078;-81
2022/12/12 04:35:16;;;;;;;21.77;11.80;;;;;;;-3.22;100.00;96730.05;1765060;81;21197;-80
2022/12/12 04:37:48;;;;;;;24.43;11.28;;;;;;;-3.26;100.00;96727.55;1764730;81;21084;-78
2022/12/12 04:40:20;;;;;;;18.35;9.78;;;;;;;-3.30;100.00;96732.20;1765005;81;21129;-78
2022/12/12 04:42:57;;;;;;;19.40;11.90;;;;;;;-3.28;100.00;96730.94;1763679;81;20986;-78
2022/12/12 04:45:33;;;;;;;21.68;11.05;;;;;;;-3.28;100.00;96740.73;1765151;81;21508;-78
2022/12/12 04:47:59;;;;;;;22.40;11.78;;;;;;;-3.27;100.00;96737.05;1764521;81;21085;-78
2022/12/12 04:50:26;;;;;;;24.43;13.88;;;;;;;-3.28;100.00;96732.78;1759070;81;20984;-81
2022/12/12 04:52:52;;;;;;;19.00;10.80;;;;;;;-3.28;100.00;96740.73;1762590;81;21013;-81
2022/12/12 04:55:23;;;;;;;29.87;12.93;;;;;;;-3.30;100.00;96743.61;1762728;81;20877;-81
2022/12/12 04:57:52;;;;;;;24.00;12.75;;;;;;;-3.29;100.00;96736.47;1744998;82;21072;-78
2022/12/12 05:00:19;;;;;;;31.40;16.02;;;;;;;-3.27;100.00;96735.72;1762711;81;21069;-81
2022/12/12 05:03:19;;;;;;;25.43;13.58;;;;;;;-3.27;100.00;96746.31;1748890;81;21031;-78
2022/12/12 05:06:00;;;;;;;19.75;12.05;;;;;;;-3.27;100.00;96744.47;1780245;80;21047;-78
2022/12/12 05:08:46;;;;;;;20.97;11.55;;;;;;;-3.28;100.00;96747.35;1761123;81;21023;-78
2022/12/12 05:11:12;;;;;;;26.12;13.65;;;;;;;-3.29;100.00;96746.55;1734126;81;21091;-81
2022/12/12 05:13:40;;;;;;;23.77;12.43;;;;;;;-3.32;100.00;96748.84;1761195;81;21131;-78
2022/12/12 05:16:28;;;;;;;14.73;9.63;;;;;;;-3.32;100.00;96751.49;1761561;81;21007;-78
2022/12/12 05:18:54;;;;;;;18.82;10.63;;;;;;;-3.32;100.00;96749.66;1761128;81;22046;-81
2022/12/12 05:21:20;;;;;;;17.42;9.03;;;;;;;-3.34;100.00;96745.06;1761252;81;21909;-78
2022/12/12 05:23:46;;;;;;;17.40;10.03;;;;;;;-3.34;100.00;96746.39;1761099;81;21035;-81
2022/12/12 05:26:27;;;;;;;21.30;10.70;;;;;;;-3.34;100.00;96748.23;1761322;81;20936;-78
2022/12/12 05:28:53;;;;;;;22.10;10.72;;;;;;;-3.35;100.00;96743.97;1760972;81;21079;-81
2022/12/12 05:31:19;;;;;;;28.60;13.75;;;;;;;-3.36;100.00;96753.76;1761339;81;21070;-81
2022/12/12 05:33:45;;;;;;;23.15;9.88;;;;;;;-3.36;100.00;96748.98;1761091;81;21015;-78
2022/12/12 05:36:11;;;;;;;21.70;11.73;;;;;;;-3.35;100.00;96753.23;1761476;81;20877;-81
2022/12/12 05:38:37;;;;;;;21.68;12.33;;;;;;;-3.36;100.00;96752.44;1761102;81;21380;-78
2022/12/12 05:41:03;;;;;;;22.98;10.55;;;;;;;-3.34;100.00;96744.26;1761463;81;20944;-78
2022/12/12 05:43:29;;;;;;;17.55;10.00;;;;;;;-3.33;100.00;96747.20;1761102;81;21016;-78
2022/12/12 05:45:55;;;;;;;23.55;11.83;;;;;;;-3.35;100.00;96746.09;1761405;81;21557;-81
2022/12/12 05:48:21;;;;;;;22.07;10.88;;;;;;;-3.38;100.00;96749.72;1761110;81;20892;-78
2022/12/12 05:50:47;;;;;;;18.50;10.45;;;;;;;-3.41;100.00;96747.81;1759912;81;21618;-78
2022/12/12 05:53:13;;;;;;;19.98;9.75;;;;;;;-3.42;100.00;96750.66;1757772;81;20877;-78
2022/12/12 05:55:39;;;;;;;19.50;9.13;;;;;;;-3.43;100.00;96756.99;1758157;81;22471;-81
2022/12/12 05:58:04;;;;;;;23.40;12.07;;;;;;;-3.45;100.00;96751.92;1746004;81;20874;-81
2022/12/12 06:00:30;;;;;;;24.37;10.48;;;;;;;-3.45;100.00;96749.80;1745938;81;21051;-81
2022/12/12 06:02:56;;;;;;;17.35;8.85;;;;;;;-3.44;100.00;96755.38;1733752;81;21068;-78
2022/12/12 06:05:22;;;;;;;18.62;8.73;;;;;;;-3.45;100.00;96750.59;1730623;82;20892;-78
2022/12/12 06:07:48;;;;;;;21.45;10.00;;;;;;;-3.46;100.00;96752.15;1730613;82;20908;-78
2022/12/12 06:10:14;;;;;;;17.32;9.00;;;;;;;-3.46;100.00;96758.77;1730747;82;20951;-81
2022/12/12 06:12:40;;;;;;;21.70;10.60;;;;;;;-3.46;100.00;96756.94;1730837;81;20971;-78
2022/12/12 06:15:06;;;;;;;22.95;10.40;;;;;;;-3.45;100.00;96755.09;1730837;82;21319;-80
2022/12/12 06:17:32;;;;;;;19.73;10.48;;;;;;;-3.44;100.00;96761.48;1737527;81;21023;-79
2022/12/12 06:19:58;;;;;;;24.15;11.63;;;;;;;-3.41;100.00;96766.36;1732441;81;20975;-78
2022/12/12 06:22:24;;;;;;;22.37;9.55;;;;;;;-3.39;100.00;96763.48;1749558;81;20956;-78
2022/12/12 06:24:50;;;;;;;21.68;11.22;;;;;;;-3.37;100.00;96768.04;1761007;81;20979;-78
2022/12/12 06:27:16;;;;;;;20.45;11.63;;;;;;;-3.37;100.00;96765.39;1734803;81;21145;-81
2022/12/12 06:29:41;;;;;;;20.72;11.40;;;;;;;-3.34;100.00;96772.08;1730495;82;21515;-78
2022/12/12 06:32:07;;;;;;;25.17;13.53;;;;;;;-3.39;100.00;96768.78;1730543;82;21535;-80
2022/12/12 06:34:33;;;;;;;27.98;13.53;;;;;;;-3.38;100.00;96771.72;1735751;81;20860;-81
2022/12/12 06:36:59;;;;;;;29.63;13.95;;;;;;;-3.34;100.00;96770.75;1761159;81;21606;-81
2022/12/12 06:39:25;;;;;;;26.62;13.83;;;;;;;-3.31;100.00;96775.63;1760556;81;21819;-77
2022/12/12 06:41:51;;;;;;;24.10;12.00;;;;;;;-3.31;100.00;96772.45;1761074;81;21014;-81
2022/12/12 06:44:17;;;;;;;20.02;11.20;;;;;;;-3.30;100.00;96777.23;1760726;81;20872;-81
2022/12/12 06:46:43;;;;;;;30.43;13.32;;;;;;;-3.30;100.00;96773.27;1745605;81;21024;-78
2022/12/12 06:49:09;;;;;;;29.18;13.90;;;;;;;-3.26;100.00;96783.19;1730517;82;20956;-78
2022/12/12 06:51:42;;;;;;;26.93;14.50;;;;;;;-3.25;100.00;96780.02;1752938;81;21154;-78
2022/12/12 06:54:04;;;;;;;;;;;;;;;-3.23;100.00;96784.08;1762280;81;20988;-78
2022/12/12 06:56:30;;;;;;;23.30;11.22;;;;;;;-3.22;100.00;96788.34;1757798;81;20215;-80
2022/12/12 06:58:57;;;;;;;26.05;13.90;;;;;;;-3.20;100.00;96788.92;1780636;80;21629;-80
2022/12/12 07:01:23;;;;;;;27.85;14.35;;;;;;;-3.17;100.00;96793.77;1750539;81;21043;-78
2022/12/12 07:03:49;;;;;;;28.52;12.70;;;;;;;-3.16;100.00;96794.09;1750001;81;21135;-81
2022/12/12 07:06:17;;;;;;;23.27;13.22;;;;;;;-3.16;100.00;96798.58;1730441;82;21468;-81
2022/12/12 07:08:42;;;;;;;25.97;11.43;;;;;;;-3.15;100.00;96792.25;1743671;81;21405;-81
2022/12/12 07:11:17;;;;;;;21.45;12.43;;;;;;;-3.10;100.00;96795.02;1753250;81;20948;-78
2022/12/12 07:13:43;;;;;;;20.20;10.32;;;;;;;-3.07;100.00;96800.42;1754479;81;21076;-81
2022/12/12 07:16:09;;;;;;;23.70;10.78;;;;;;;-3.04;100.00;96799.44;1747921;81;20996;-78
2022/12/12 07:18:35;;;;;;;19.95;11.33;;;;;;;-3.04;100.00;96795.98;1770457;80;20861;-78
2022/12/12 07:21:06;;;;;;;20.97;11.22;;;;;;;-3.00;100.00;96805.91;1762834;81;21038;-81
2022/12/12 07:23:32;;;;;;;23.92;11.20;;;;;;;-2.96;100.00;96803.11;1767061;81;21016;-81
2022/12/12 07:25:58;;;;;;;21.77;11.08;;;;;;;-2.89;100.00;96796.41;1738867;82;21029;-79
2022/12/12 07:28:24;;;;;;;26.82;14.25;;;;;;;-2.82;100.00;96796.30;1762596;81;21157;-81
2022/12/12 07:30:50;;;;;;;25.77;12.53;;;;;;;-2.81;100.00;96793.45;1755351;81;20939;-78
2022/12/12 07:33:16;;;;;;;22.07;12.00;;;;;;;-2.78;100.00;96796.97;1745504;81;21062;-78
2022/12/12 07:35:42;;;;;;;21.42;11.43;;;;;;;-2.75;100.00;96793.05;1744714;81;20885;-79
2022/12/12 07:38:09;;;;;;;31.40;15.45;;;;;;;-2.68;100.00;96804.38;1745912;81;21011;-78
2022/12/12 07:40:34;;;;;;;22.35;11.35;;;;;;;-2.64;100.00;96805.05;1744990;81;21233;-81
2022/12/12 07:43:00;;;;;;;27.98;14.45;;;;;;;-2.60;100.00;96804.87;1742798;81;21077;-79
2022/12/12 07:45:26;;;;;;;26.15;12.15;;;;;;;-2.63;100.00;96804.00;1744915;81;21026;-78
2022/12/12 07:47:52;;;;;;;26.65;11.95;;;;;;;-2.57;100.00;96806.25;1746035;81;21365;-78
2022/12/12 07:50:18;;;;;;;25.30;13.30;;;;;;;-2.52;100.00;96802.94;1752795;81;20883;-78
2022/12/12 07:52:44;;;;;;;22.62;12.15;;;;;;;-2.44;100.00;96806.08;1750807;81;21504;-81
2022/12/12 07:55:10;;;;;;;27.22;12.90;;;;;;;-2.37;100.00;96804.14;1741480;81;20907;-81
2022/12/12 07:57:37;;;;;;;27.48;13.00;;;;;;;-2.36;100.00;96804.95;1743010;81;21176;-81
2022/12/12 08:00:05;;;;;;;28.05;13.18;;;;;;;-2.35;100.00;96800.73;1739310;81;21055;-79
2022/12/12 08:02:31;;;;;;;26.40;12.80;;;;;;;-2.28;100.00;96808.09;1717351;81;21038;-81
2022/12/12 08:04:57;;;;;;;27.95;15.03;;;;;;;-2.22;100.00;96807.70;1750684;81;21488;-78
2022/12/12 08:07:23;;;;;;;24.50;13.50;;;;;;;-2.12;100.00;96808.47;1758573;81;21077;-78
2022/12/12 08:09:49;;;;;;;26.85;13.98;;;;;;;-2.09;100.00;96808.81;1750325;81;21011;-81
2022/12/12 08:12:15;;;;;;;33.20;14.33;;;;;;;-2.00;100.00;96807.95;1733402;81;21570;-80
2022/12/12 08:14:41;;;;;;;27.60;13.70;;;;;;;-1.90;100.00;96812.69;1752919;81;20931;-81
2022/12/12 08:17:07;;;;;;;31.05;16.10;;;;;;;-1.82;100.00;96814.48;1763379;81;21831;-81
2022/12/12 08:19:33;;;;;;;31.97;16.17;;;;;;;-1.83;100.00;96814.72;1759657;81;20874;-81
2022/12/12 08:21:58;;;;;;;29.05;13.60;;;;;;;-1.72;100.00;96812.58;1747725;81;21648;-78
2022/12/12 08:24:24;;;;;;;24.37;14.28;;;;;;;-1.54;100.00;96816.97;1741037;81;20884;-78
2022/12/12 08:26:51;;;;;;;29.15;13.65;;;;;;;-1.52;100.00;96820.23;1749786;81;20912;-81
2022/12/12 08:29:17;;;;;;;27.42;13.13;;;;;;;-1.44;100.00;96818.02;1742557;81;21596;-78
2022/12/12 08:31:43;;;;;;;34.92;15.28;;;;;;;-1.26;100.00;96818.41;1749959;81;20880;-79
2022/12/12 08:34:08;;;;;;;23.30;13.90;;;;;;;-1.18;100.00;96819.38;1758085;81;21006;-81
2022/12/12 08:36:34;;;;;;;28.50;14.58;;;;;;;-1.04;100.00;96817.25;1741591;81;20899;-81
2022/12/12 08:39:08;;;;;;;28.62;14.95;;;;;;;-1.01;100.00;96816.80;1758817;81;21010;-81
2022/12/12 08:41:35;;;;;;;26.02;12.73;;;;;;;-1.00;100.00;96814.42;1762358;81;21872;-79
2022/12/12 08:44:01;;;;;;;27.77;15.25;;;;;;;-0.92;100.00;96818.56;1761953;81;21488;-81
2022/12/12 08:46:27;;;;;;;26.52;15.13;;;;;;;-0.90;100.00;96818.61;1755673;81;20904;-81
2022/12/12 08:48:52;;;;;;;32.80;18.48;;;;;;;-0.89;100.00;96820.75;1748375;81;20935;-81
2022/12/12 08:51:18;;;;;;;37.75;16.85;;;;;;;-0.72;100.00;96822.14;1739158;81;20955;-78
2022/12/12 08:53:45;;;;;;;87.67;36.63;;;;;;;-0.51;100.00;96813.52;1740677;81;21115;-78
2022/12/12 08:56:11;;;;;;;46.18;25.70;;;;;;;-0.42;100.00;96822.72;1739958;81;21027;-81
2022/12/12 08:58:37;;;;;;;42.67;21.80;;;;;;;-0.44;100.00;96826.12;1748217;81;20892;-81
2022/12/12 09:01:12;;;;;;;40.60;20.52;;;;;;;-0.36;100.00;96829.73;1751184;81;20903;-78
2022/12/12 09:03:38;;;;;;;48.48;23.22;;;;;;;-0.35;100.00;96826.02;1735289;81;21507;-81
2022/12/12 09:06:06;;;;;;;45.45;21.65;;;;;;;-0.35;100.00;96828.69;1750496;81;21042;-81
2022/12/12 09:08:33;;;;;;;37.45;19.52;;;;;;;-0.30;100.00;96825.32;1742098;81;21022;-81
2022/12/12 09:10:59;;;;;;;34.95;18.52;;;;;;;-0.25;100.00;96829.42;1759811;81;21161;-79
2022/12/12 09:13:25;;;;;;;34.10;20.10;;;;;;;-0.25;100.00;96823.28;1741675;81;21006;-81
2022/12/12 09:15:51;;;;;;;26.97;16.90;;;;;;;-0.33;100.00;96829.28;1746464;81;21502;-79
2022/12/12 09:18:17;;;;;;;25.62;12.73;;;;;;;-0.39;100.00;96829.42;1713287;81;21792;-79
2022/12/12 09:20:49;;;;;;;23.62;13.45;;;;;;;-0.48;100.00;96826.86;1737728;81;21012;-78
2022/12/12 09:23:16;;;;;;;22.98;13.25;;;;;;;-0.55;100.00;96826.19;1755264;81;21147;-80
2022/12/12 09:25:41;;;;;;;24.80;13.68;;;;;;;-0.68;100.00;96834.75;1758466;81;21146;-81
2022/12/12 09:28:07;;;;;;;36.58;20.40;;;;;;;-0.86;100.00;96826.91;1742644;80;20939;-81
2022/12/12 09:30:33;;;;;;;57.48;27.17;;;;;;;-1.00;100.00;96834.37;1757170;79;21121;-80
2022/12/12 09:32:59;;;;;;;46.65;24.50;;;;;;;-1.04;100.00;96833.20;1750622;81;20931;-81
2022/12/12 09:35:25;;;;;;;23.95;12.82;;;;;;;-1.11;100.00;96832.55;1744013;80;20875;-81
2022/12/12 09:37:52;;;;;;;34.75;15.63;;;;;;;-1.13;100.00;96829.30;1742930;82;20880;-83
2022/12/12 09:40:20;;;;;;;26.97;14.35;;;;;;;-1.11;100.00;96829.05;1771914;79;21093;-83
2022/12/12 09:42:48;;;;;;;23.77;12.67;;;;;;;-1.12;100.00;96826.11;1765730;80;21301;-83
2022/12/12 09:45:14;;;;;;;21.90;13.65;;;;;;;-1.09;100.00;96825.14;1765319;79;21074;-83
2022/12/12 09:47:49;;;;;;;33.33;16.77;;;;;;;-1.08;100.00;96822.77;1764903;80;21034;-83
2022/12/12 09:50:30;;;;;;;33.95;16.77;;;;;;;-1.03;100.00;96824.18;1763781;80;21022;-83
2022/12/12 09:53:02;;;;;;;25.85;13.55;;;;;;;-1.07;100.00;96823.05;1760975;79;21015;-80
2022/12/12 09:56:01;;;;;;;31.55;15.28;;;;;;;-1.09;100.00;96825.14;1759507;79;21309;-80
2022/12/12 09:58:40;;;;;;;32.80;18.57;;;;;;;-1.12;100.00;96824.27;1766671;79;26700;-83
2022/12/12 10:01:27;;;;;;;25.23;13.50;;;;;;;-1.07;100.00;96823.05;1745275;81;21479;-83
2022/12/12 10:04:37;;;;;;;24.57;12.98;;;;;;;-1.05;100.00;96822.28;1743313;80;21921;-83
2022/12/12 10:07:21;;;;;;;39.18;18.82;;;;;;;-1.14;100.00;96830.34;1747728;80;21272;-80
2022/12/12 10:10:03;;;;;;;25.12;12.13;;;;;;;-1.24;100.00;96833.59;1743248;81;21155;-80
2022/12/12 10:12:29;;;;;;;24.87;12.88;;;;;;;-1.15;100.00;96830.86;1750558;80;21496;-80
2022/12/12 10:14:59;;;;;;;32.70;17.15;;;;;;;-1.25;100.00;96832.50;1742159;80;21605;-81
2022/12/12 10:17:35;;;;;;;31.77;16.30;;;;;;;-1.28;100.00;96832.95;1744128;80;21015;-81
2022/12/12 10:20:08;;;;;;;27.37;14.98;;;;;;;-1.30;100.00;96832.38;1745724;80;20983;-80
2022/12/12 10:22:41;;;;;;;60.60;28.45;;;;;;;-1.31;100.00;96832.09;1762112;79;21116;-83
2022/12/12 10:25:19;;;;;;;29.07;17.15;;;;;;;-1.28;100.00;96825.81;1742364;80;21615;-83
2022/12/12 10:27:45;;;;;;;27.10;12.93;;;;;;;-1.25;100.00;96825.34;1738514;81;20952;-80
2022/12/12 10:30:16;;;;;;;53.05;25.70;;;;;;;-1.31;100.00;96830.77;1704875;82;20955;-81
2022/12/12 10:33:14;;;;;;;35.92;19.32;;;;;;;-1.26;100.00;96826.91;1735708;81;21007;-81
2022/12/12 10:35:46;;;;;;;49.88;26.20;;;;;;;-1.24;100.00;96826.14;1748472;80;21523;-83
2022/12/12 10:38:26;;;;;;;63.33;29.12;;;;;;;-1.29;100.00;96828.68;1732890;81;21102;-82
2022/12/12 10:41:12;;;;;;;48.33;24.50;;;;;;;-1.27;100.00;96820.78;1765444;80;21137;-82
2022/12/12 10:44:19;;;;;;;54.77;29.50;;;;;;;-1.18;100.00;96826.02;1742776;81;21062;-80
2022/12/12 10:46:50;;;;;;;31.77;18.15;;;;;;;-1.16;100.00;96822.60;1742509;81;21054;-80
2022/12/12 10:49:19;;;;;;;40.43;26.27;;;;;;;-1.30;100.00;96819.90;1738396;80;21125;-83
2022/12/12 10:51:46;;;;;;;28.20;16.77;;;;;;;-1.29;100.00;96825.50;1742462;81;27185;-83
2022/12/12 10:54:22;;;;;;;30.45;16.35;;;;;;;-1.27;100.00;96831.94;1749585;81;21047;-80
2022/12/12 10:57:07;;;;;;;26.50;12.58;;;;;;;-1.28;100.00;96832.95;1739683;81;21520;-81
2022/12/12 10:59:42;;;;;;;25.43;14.80;;;;;;;-1.24;100.00;96828.28;1735900;80;21070;-81
2022/12/12 11:02:31;;;;;;;29.05;17.07;;;;;;;-1.23;100.00;96827.23;1714814;81;21102;-79
2022/12/12 11:05:00;;;;;;;26.52;14.15;;;;;;;-1.22;100.00;96820.88;1738441;81;21157;-81
2022/12/12 11:07:26;;;;;;;;;;;;;;;-1.18;100.00;96822.56;1745540;81;21020;-79
2022/12/12 11:09:52;;;;;;;27.27;15.72;;;;;;;-1.24;100.00;96821.63;1712554;81;20191;-82
2022/12/12 11:12:19;;;;;;;34.00;17.37;;;;;;;-1.19;100.00;96823.08;1746222;80;20997;-79
2022/12/12 11:14:50;;;;;;;41.90;19.87;;;;;;;-1.18;100.00;96823.37;1744773;81;21867;-79
2022/12/12 11:17:28;;;;;;;72.92;34.95;;;;;;;-1.23;100.00;96819.78;1742436;81;20972;-82
2022/12/12 11:19:58;;;;;;;30.75;16.40;;;;;;;-1.14;100.00;96823.69;1747435;80;21072;-81
2022/12/12 11:22:24;;;;;;;28.65;15.23;;;;;;;-1.13;100.00;96819.98;1755693;80;21048;-79
2022/12/12 11:24:50;;;;;;;30.12;16.85;;;;;;;-1.12;100.00;96812.30;1722518;80;22217;-79
2022/12/12 11:27:29;;;;;;;36.00;19.02;;;;;;;-1.11;100.00;96818.42;1730098;80;21140;-81
2022/12/12 11:30:00;;;;;;;28.17;16.55;;;;;;;-1.19;100.00;96820.42;1715185;81;20992;-79
2022/12/12 11:32:30;;;;;;;32.85;15.95;;;;;;;-1.23;100.00;96819.26;1749510;80;21054;-82
2022/12/12 11:34:59;;;;;;;33.98;18.52;;;;;;;-1.17;100.00;96820.19;1747510;80;22189;-81
2022/12/12 11:37:33;;;;;;;49.40;24.92;;;;;;;-1.17;100.00;96821.52;1742959;80;21082;-81
2022/12/12 11:39:59;;;;;;;36.83;18.62;;;;;;;-1.16;100.00;96815.15;1736211;80;21196;-79
2022/12/12 11:42:31;;;;;;;55.20;25.32;;;;;;;-1.20;100.00;96816.16;1745733;81;21506;-79